createdAt,value
2023-05-13T00:00:39.673Z,27.15
2023-05-13T00:03:42.284Z,27.52
2023-05-13T00:06:44.495Z,23.73
2023-05-13T00:09:46.472Z,27.48
2023-05-13T00:12:48.711Z,26.75
2023-05-13T00:15:51.323Z,26.15
2023-05-13T00:18:54.366Z,25.35
2023-05-13T00:21:56.424Z,26.30
2023-05-13T00:24:58.573Z,24.30
2023-05-13T00:28:00.856Z,27.90
2023-05-13T00:31:04.061Z,28.65
2023-05-13T00:34:06.803Z,28.63
2023-05-13T00:37:10.464Z,25.42
2023-05-13T00:40:20.028Z,30.27
2023-05-13T00:43:22.298Z,29.80
2023-05-13T00:46:25.145Z,25.98
2023-05-13T00:49:27.723Z,27.85
2023-05-13T00:52:29.801Z,32.95
2023-05-13T00:55:31.893Z,28.35
2023-05-13T00:58:34.032Z,25.27
2023-05-13T01:01:59.696Z,27.95
2023-05-13T01:05:38.518Z,26.95
2023-05-13T01:09:16.109Z,27.58
2023-05-13T01:12:26.801Z,24.90
2023-05-13T01:15:29.854Z,25.92
2023-05-13T01:18:40.459Z,30.05
2023-05-13T01:21:51.450Z,29.33
2023-05-13T01:24:53.503Z,27.23
2023-05-13T01:27:55.921Z,28.65
2023-05-13T01:30:58.474Z,34.70
2023-05-13T01:34:00.764Z,28.15
2023-05-13T01:37:03.453Z,31.02
2023-05-13T01:40:17.076Z,30.67
2023-05-13T01:43:26.912Z,30.63
2023-05-13T01:46:29.068Z,29.55
2023-05-13T01:49:31.143Z,31.65
2023-05-13T01:52:33.197Z,29.40
2023-05-13T01:55:35.269Z,31.80
2023-05-13T01:58:37.348Z,30.52
2023-05-13T02:01:40.603Z,28.35
2023-05-13T02:04:42.706Z,28.10
2023-05-13T02:07:45.451Z,36.08
2023-05-13T02:10:58.574Z,29.80
2023-05-13T02:14:00.636Z,36.25
2023-05-13T02:17:03.704Z,30.75
2023-05-13T02:20:06.513Z,32.50
2023-05-13T02:23:08.789Z,28.95
2023-05-13T02:26:10.844Z,27.65
2023-05-13T02:29:12.926Z,31.70
2023-05-13T02:32:14.986Z,34.60
2023-05-13T02:35:17.066Z,31.15
2023-05-13T02:38:19.125Z,30.08
2023-05-13T02:41:21.177Z,28.88
2023-05-13T02:44:23.256Z,36.72
2023-05-13T02:47:25.399Z,33.85
2023-05-13T02:50:27.485Z,35.70
2023-05-13T02:53:29.572Z,32.00
2023-05-13T02:56:31.675Z,34.17
2023-05-13T02:59:33.739Z,30.45
2023-05-13T03:02:36.461Z,36.15
2023-05-13T03:05:38.619Z,37.25
2023-05-13T03:08:40.668Z,32.03
2023-05-13T03:11:42.817Z,33.83
2023-05-13T03:14:46.125Z,34.03
2023-05-13T03:17:48.198Z,27.70
2023-05-13T03:20:50.277Z,31.35
2023-05-13T03:23:52.280Z,38.65
2023-05-13T03:26:54.361Z,31.52
2023-05-13T03:29:56.435Z,37.53
2023-05-13T03:32:58.625Z,39.78
2023-05-13T03:36:00.649Z,39.47
2023-05-13T03:39:02.744Z,35.25
2023-05-13T03:42:05.067Z,37.92
2023-05-13T03:45:07.756Z,39.40
2023-05-13T03:48:09.876Z,37.60
2023-05-13T03:51:12.001Z,37.42
2023-05-13T03:54:14.040Z,37.90
2023-05-13T03:57:16.063Z,31.15
2023-05-13T04:00:18.264Z,32.95
2023-05-13T04:03:20.510Z,37.88
2023-05-13T04:06:22.571Z,37.03
2023-05-13T04:09:24.580Z,35.83
2023-05-13T04:12:26.789Z,36.38
2023-05-13T04:15:28.887Z,41.50
2023-05-13T04:18:33.668Z,35.88
2023-05-13T04:21:35.679Z,40.33
2023-05-13T04:24:37.796Z,43.25
2023-05-13T04:27:39.912Z,39.97
2023-05-13T04:30:43.127Z,41.22
2023-05-13T04:33:45.424Z,37.95
2023-05-13T04:36:48.801Z,41.30
2023-05-13T04:39:50.914Z,40.33
2023-05-13T04:42:55.105Z,42.15
2023-05-13T04:45:57.273Z,43.53
2023-05-13T04:48:59.302Z,38.28
2023-05-13T04:52:03.402Z,39.78
2023-05-13T04:55:05.684Z,42.88
2023-05-13T04:58:07.740Z,44.10
2023-05-13T05:01:09.947Z,37.10
2023-05-13T05:04:12.915Z,43.42
2023-05-13T05:07:15.128Z,41.95
2023-05-13T05:10:17.214Z,40.53
2023-05-13T05:13:19.211Z,42.30
2023-05-13T05:16:21.386Z,49.90
2023-05-13T05:19:24.387Z,47.38
2023-05-13T05:22:27.024Z,50.25
2023-05-13T05:25:29.051Z,48.95
2023-05-13T05:28:31.242Z,49.58
2023-05-13T05:31:33.365Z,55.75
2023-05-13T05:34:35.520Z,55.50
2023-05-13T05:37:37.647Z,58.65
2023-05-13T05:40:44.042Z,50.45
2023-05-13T05:43:46.134Z,47.17
2023-05-13T05:46:48.134Z,46.65
2023-05-13T05:49:50.238Z,41.47
2023-05-13T05:52:52.292Z,40.35
2023-05-13T05:55:54.576Z,43.85
2023-05-13T05:58:56.625Z,53.03
2023-05-13T06:01:58.728Z,44.08
2023-05-13T06:05:00.746Z,40.33
2023-05-13T06:08:02.896Z,43.70
2023-05-13T06:11:04.994Z,43.60
2023-05-13T06:14:07.159Z,41.53
2023-05-13T06:17:09.174Z,38.28
2023-05-13T06:20:11.924Z,39.03
2023-05-13T06:23:15.064Z,43.83
2023-05-13T06:26:17.164Z,40.30
2023-05-13T06:29:19.205Z,48.65
2023-05-13T06:32:21.289Z,39.38
2023-05-13T06:35:23.339Z,41.28
2023-05-13T06:38:25.449Z,41.25
2023-05-13T06:41:27.770Z,45.55
2023-05-13T06:44:29.766Z,50.65
2023-05-13T06:47:31.891Z,46.70
2023-05-13T06:50:34.223Z,46.45
2023-05-13T06:53:36.444Z,47.45
2023-05-13T06:56:38.508Z,48.53
2023-05-13T06:59:40.722Z,46.92
2023-05-13T07:02:42.899Z,54.40
2023-05-13T07:05:45.081Z,54.95
2023-05-13T07:08:47.303Z,54.10
2023-05-13T07:11:49.438Z,48.67
2023-05-13T07:14:51.710Z,49.28
2023-05-13T07:17:53.872Z,49.10
2023-05-13T07:20:59.178Z,52.42
2023-05-13T07:24:02.402Z,49.40
2023-05-13T07:27:04.698Z,50.85
2023-05-13T07:30:07.408Z,49.85
2023-05-13T07:33:09.547Z,50.42
2023-05-13T07:36:11.572Z,54.83
2023-05-13T07:39:13.665Z,48.40
2023-05-13T07:42:15.769Z,52.72
2023-05-13T07:45:17.891Z,48.47
2023-05-13T07:48:19.935Z,46.97
2023-05-13T07:51:22.074Z,47.35
2023-05-13T07:54:24.173Z,44.72
2023-05-13T07:57:26.355Z,44.67
2023-05-13T08:00:28.478Z,44.83
2023-05-13T08:03:30.678Z,42.70
2023-05-13T08:06:33.099Z,47.60
2023-05-13T08:09:35.131Z,42.53
2023-05-13T08:12:37.235Z,40.30
2023-05-13T08:15:39.354Z,34.55
2023-05-13T08:18:41.386Z,39.97
2023-05-13T08:21:43.539Z,35.38
2023-05-13T08:24:45.621Z,28.48
2023-05-13T08:27:47.619Z,27.02
2023-05-13T08:30:49.664Z,25.75
2023-05-13T08:33:54.956Z,22.60
2023-05-13T08:36:57.014Z,21.48
2023-05-13T08:40:01.610Z,19.90
2023-05-13T08:43:06.305Z,20.50
2023-05-13T08:46:11.140Z,18.90
2023-05-13T08:49:13.919Z,15.77
2023-05-13T08:52:17.099Z,15.38
2023-05-13T08:55:19.566Z,20.63
2023-05-13T08:58:21.760Z,20.13
2023-05-13T09:01:25.211Z,15.55
2023-05-13T09:04:27.434Z,18.05
2023-05-13T09:07:32.351Z,12.65
2023-05-13T09:10:34.393Z,15.70
2023-05-13T09:13:36.673Z,13.98
2023-05-13T09:16:38.957Z,12.15
2023-05-13T09:19:42.586Z,13.43
2023-05-13T09:22:52.747Z,14.60
2023-05-13T09:25:54.980Z,9.35
2023-05-13T09:29:25.791Z,9.57
2023-05-13T09:32:28.102Z,9.32
2023-05-13T09:35:32.143Z,13.90
2023-05-13T09:38:39.097Z,10.48
2023-05-13T09:41:42.539Z,11.65
2023-05-13T09:44:45.755Z,15.45
2023-05-13T09:47:54.847Z,13.27
2023-05-13T09:50:58.482Z,14.95
2023-05-13T09:54:07.342Z,14.68
2023-05-13T09:57:13.352Z,14.57
2023-05-13T10:00:28.946Z,14.60
2023-05-13T10:03:34.155Z,18.50
2023-05-13T10:06:37.466Z,17.98
2023-05-13T10:09:40.711Z,15.70
2023-05-13T10:12:43.127Z,17.23
2023-05-13T10:15:53.855Z,17.88
2023-05-13T10:18:58.776Z,18.30
2023-05-13T10:22:02.316Z,19.55
2023-05-13T10:25:05.234Z,17.77
2023-05-13T10:28:08.352Z,19.60
2023-05-13T10:31:10.363Z,18.88
2023-05-13T10:34:13.241Z,16.67
2023-05-13T10:37:36.311Z,15.60
2023-05-13T10:40:47.774Z,18.75
2023-05-13T10:43:59.606Z,17.60
2023-05-13T10:47:02.900Z,17.35
2023-05-13T10:50:23.486Z,14.73
2023-05-13T10:53:30.298Z,12.68
2023-05-13T10:56:32.786Z,10.70
2023-05-13T10:59:37.200Z,12.45
2023-05-13T11:02:39.306Z,9.48
2023-05-13T11:05:47.346Z,10.75
2023-05-13T11:08:55.037Z,7.90
2023-05-13T11:12:03.580Z,7.90
2023-05-13T11:15:21.929Z,9.18
2023-05-13T11:18:30.578Z,8.75
2023-05-13T11:21:35.636Z,10.63
2023-05-13T11:24:38.089Z,9.18
2023-05-13T11:27:42.287Z,13.05
2023-05-13T11:30:57.748Z,16.77
2023-05-13T11:34:06.391Z,13.73
2023-05-13T11:37:10.421Z,12.60
2023-05-13T11:40:22.223Z,13.07
2023-05-13T11:43:24.621Z,12.00
2023-05-13T11:46:26.825Z,14.45
2023-05-13T11:49:41.034Z,17.50
2023-05-13T11:52:43.641Z,15.05
2023-05-13T11:55:45.660Z,16.15
2023-05-13T11:58:47.817Z,18.23
2023-05-13T12:02:02.681Z,16.73
2023-05-13T12:05:09.126Z,15.32
2023-05-13T12:08:11.752Z,14.27
2023-05-13T12:11:14.072Z,22.88
2023-05-13T12:14:17.338Z,16.08
2023-05-13T12:17:20.550Z,12.77
2023-05-13T12:20:23.754Z,14.43
2023-05-13T12:23:25.997Z,16.83
2023-05-13T12:26:28.336Z,11.95
2023-05-13T12:29:42.736Z,11.50
2023-05-13T12:32:47.064Z,15.18
2023-05-13T12:35:54.249Z,13.32
2023-05-13T12:39:09.225Z,10.00
2023-05-13T12:42:18.314Z,9.55
2023-05-13T12:45:21.643Z,8.98
2023-05-13T12:48:25.598Z,13.10
2023-05-13T12:51:29.674Z,7.78
2023-05-13T12:54:31.690Z,8.02
2023-05-13T12:57:33.785Z,9.73
2023-05-13T13:00:35.844Z,5.63
2023-05-13T13:03:37.935Z,7.40
2023-05-13T13:06:40.144Z,6.10
2023-05-13T13:09:42.246Z,9.27
2023-05-13T13:12:44.290Z,5.97
2023-05-13T13:15:46.751Z,6.32
2023-05-13T13:18:51.018Z,6.07
2023-05-13T13:21:54.550Z,6.05
2023-05-13T13:24:56.639Z,7.72
2023-05-13T13:27:58.737Z,6.38
2023-05-13T13:31:00.715Z,5.60
2023-05-13T13:34:04.937Z,6.60
2023-05-13T13:37:06.997Z,6.95
2023-05-13T13:40:09.518Z,10.07
2023-05-13T13:43:11.583Z,8.35
2023-05-13T13:46:13.568Z,7.03
2023-05-13T13:49:23.245Z,6.13
2023-05-13T13:52:28.560Z,8.98
2023-05-13T13:55:30.963Z,10.95
2023-05-13T13:58:32.965Z,10.40
2023-05-13T14:01:34.971Z,11.05
2023-05-13T14:04:37.337Z,15.23
2023-05-13T14:07:39.601Z,10.65
2023-05-13T14:10:41.666Z,9.80
2023-05-13T14:13:43.740Z,12.77
2023-05-13T14:16:46.044Z,8.98
2023-05-13T14:19:51.683Z,9.07
2023-05-13T14:22:53.765Z,14.20
2023-05-13T14:25:55.847Z,10.45
2023-05-13T14:28:57.878Z,12.70
2023-05-13T14:32:02.010Z,13.40
2023-05-13T14:35:04.353Z,14.95
2023-05-13T14:38:06.398Z,10.93
2023-05-13T14:41:08.442Z,11.23
2023-05-13T14:44:10.669Z,13.63
2023-05-13T14:47:12.950Z,12.75
2023-05-13T14:50:15.986Z,13.32
2023-05-13T14:53:18.043Z,14.50
2023-05-13T14:56:20.051Z,13.55
2023-05-13T14:59:22.093Z,15.15
2023-05-13T15:02:24.152Z,16.33
2023-05-13T15:05:26.674Z,21.42
2023-05-13T15:08:29.024Z,18.08
2023-05-13T15:11:31.077Z,21.70
2023-05-13T15:14:33.052Z,18.92
2023-05-13T15:17:35.258Z,20.23
2023-05-13T15:20:37.349Z,19.42
2023-05-13T15:23:39.494Z,23.67
2023-05-13T15:26:41.545Z,21.13
2023-05-13T15:29:43.496Z,23.55
2023-05-13T15:32:45.559Z,21.30
2023-05-13T15:35:47.916Z,23.02
2023-05-13T15:38:50.360Z,22.55
2023-05-13T15:41:52.351Z,23.05
2023-05-13T15:44:54.382Z,19.50
2023-05-13T15:47:56.570Z,20.27
2023-05-13T15:50:58.642Z,19.42
2023-05-13T15:54:00.910Z,19.60
2023-05-13T15:57:02.973Z,21.52
2023-05-13T16:00:06.110Z,23.95
2023-05-13T16:03:08.247Z,20.90
2023-05-13T16:06:10.302Z,22.05
2023-05-13T16:09:12.829Z,22.10
2023-05-13T16:12:14.847Z,22.13
2023-05-13T16:15:17.909Z,24.08
2023-05-13T16:18:20.078Z,24.00
2023-05-13T16:21:22.295Z,26.13
2023-05-13T16:24:24.331Z,24.70
2023-05-13T16:27:26.892Z,26.20
2023-05-13T16:30:28.919Z,26.45
2023-05-13T16:33:32.028Z,30.67
2023-05-13T16:36:34.170Z,28.40
2023-05-13T16:39:37.600Z,28.77
2023-05-13T16:42:39.702Z,30.63
2023-05-13T16:45:43.077Z,31.10
2023-05-13T16:48:45.190Z,31.13
2023-05-13T16:51:47.376Z,33.25
2023-05-13T16:54:50.178Z,32.97
2023-05-13T16:57:54.029Z,31.85
2023-05-13T17:00:59.099Z,32.38
2023-05-13T17:04:01.423Z,32.92
2023-05-13T17:07:03.568Z,32.60
2023-05-13T17:10:06.221Z,33.55
2023-05-13T17:13:09.718Z,33.38
2023-05-13T17:16:11.796Z,37.33
2023-05-13T17:19:13.965Z,38.83
2023-05-13T17:22:16.015Z,32.70
2023-05-13T17:25:18.121Z,36.38
2023-05-13T17:28:20.223Z,33.03
2023-05-13T17:31:23.678Z,36.35
2023-05-13T17:34:25.809Z,38.05
2023-05-13T17:37:27.901Z,37.60
2023-05-13T17:40:30.042Z,37.72
2023-05-13T17:43:32.172Z,37.30
2023-05-13T17:46:34.228Z,34.90
2023-05-13T17:49:36.287Z,38.00
2023-05-13T17:52:38.321Z,39.38
2023-05-13T17:55:40.593Z,41.53
2023-05-13T17:58:42.652Z,39.13
2023-05-13T18:01:44.795Z,38.05
2023-05-13T18:04:46.891Z,39.47
2023-05-13T18:07:48.974Z,39.15
2023-05-13T18:10:51.005Z,38.55
2023-05-13T18:13:53.534Z,42.08
2023-05-13T18:16:55.790Z,41.17
2023-05-13T18:19:57.917Z,44.70
2023-05-13T18:23:00.296Z,47.70
2023-05-13T18:26:02.504Z,48.00
2023-05-13T18:29:04.537Z,41.13
2023-05-13T18:32:06.818Z,41.17
2023-05-13T18:35:09.018Z,42.60
2023-05-13T18:38:11.108Z,45.97
2023-05-13T18:41:13.236Z,44.55
2023-05-13T18:44:15.598Z,47.47
2023-05-13T18:47:18.035Z,48.63
2023-05-13T18:50:20.617Z,49.00
2023-05-13T18:53:23.593Z,48.75
2023-05-13T18:56:27.472Z,48.42
2023-05-13T18:59:30.518Z,48.42
2023-05-13T19:02:35.229Z,47.33
2023-05-13T19:05:39.873Z,47.90
2023-05-13T19:08:51.970Z,53.03
2023-05-13T19:11:57.182Z,45.53
2023-05-13T19:15:01.403Z,47.80
2023-05-13T19:18:06.120Z,47.85
2023-05-13T19:21:11.285Z,51.15
2023-05-13T19:24:14.534Z,47.25
2023-05-13T19:27:18.041Z,46.60
2023-05-13T19:30:21.799Z,46.90
2023-05-13T19:33:26.336Z,48.00
2023-05-13T19:36:30.329Z,49.17
2023-05-13T19:39:36.957Z,48.47
2023-05-13T19:42:41.551Z,46.80
2023-05-13T19:45:44.874Z,46.22
2023-05-13T19:48:56.257Z,46.72
2023-05-13T19:52:00.196Z,44.38
2023-05-13T19:55:04.781Z,44.25
2023-05-13T19:58:08.542Z,46.35
2023-05-13T20:01:11.980Z,45.88
2023-05-13T20:04:16.902Z,43.67
2023-05-13T20:07:20.142Z,43.80
2023-05-13T20:10:24.566Z,43.58
2023-05-13T20:13:28.581Z,46.90
2023-05-13T20:16:31.754Z,45.20
2023-05-13T20:19:35.452Z,47.15
2023-05-13T20:22:38.723Z,40.65
2023-05-13T20:25:41.891Z,39.35
2023-05-13T20:28:47.855Z,40.70
2023-05-13T20:31:51.099Z,42.03
2023-05-13T20:34:54.847Z,43.67
2023-05-13T20:37:58.530Z,39.60
2023-05-13T20:41:01.012Z,41.08
2023-05-13T20:44:04.242Z,41.58
2023-05-13T20:47:07.828Z,37.88
2023-05-13T20:50:11.112Z,36.67
2023-05-13T20:53:14.398Z,38.45
2023-05-13T20:56:17.559Z,37.85
2023-05-13T20:59:20.361Z,38.20
2023-05-13T21:02:22.935Z,37.25
2023-05-13T21:05:25.547Z,38.50
2023-05-13T21:08:27.745Z,37.70
2023-05-13T21:11:29.822Z,36.67
2023-05-13T21:14:31.851Z,37.67
2023-05-13T21:17:33.950Z,35.80
2023-05-13T21:20:37.837Z,37.35
2023-05-13T21:23:44.026Z,34.17
2023-05-13T21:26:46.439Z,33.47
2023-05-13T21:29:48.524Z,26.23
2023-05-13T21:32:50.714Z,24.60
2023-05-13T21:35:54.088Z,24.30
2023-05-13T21:38:56.457Z,25.88
2023-05-13T21:42:00.644Z,22.65
2023-05-13T21:45:03.573Z,20.30
2023-05-13T21:48:06.819Z,21.88
2023-05-13T21:51:09.010Z,24.15
2023-05-13T21:54:11.013Z,20.63
2023-05-13T21:57:13.066Z,23.85
2023-05-13T22:00:18.803Z,20.77
2023-05-13T22:03:21.022Z,19.92
2023-05-13T22:06:23.039Z,25.38
2023-05-13T22:09:25.042Z,22.88
2023-05-13T22:12:27.101Z,23.95
2023-05-13T22:15:29.183Z,23.25
2023-05-13T22:18:31.446Z,23.23
2023-05-13T22:21:33.683Z,22.70
2023-05-13T22:24:35.887Z,22.67
2023-05-13T22:27:38.038Z,24.10
2023-05-13T22:30:40.082Z,20.88
2023-05-13T22:33:42.354Z,19.88
2023-05-13T22:36:44.569Z,20.25
2023-05-13T22:39:46.632Z,23.00
2023-05-13T22:42:48.660Z,21.23
2023-05-13T22:45:50.725Z,19.50
2023-05-13T22:48:52.923Z,19.80
2023-05-13T22:51:55.058Z,18.88
2023-05-13T22:54:57.136Z,17.38
2023-05-13T22:58:01.931Z,16.65
2023-05-13T23:01:04.141Z,17.50
2023-05-13T23:04:06.564Z,18.05
2023-05-13T23:07:08.669Z,17.42
2023-05-13T23:10:10.957Z,17.48
2023-05-13T23:13:12.978Z,17.58
2023-05-13T23:16:15.142Z,18.38
2023-05-13T23:19:17.302Z,19.73
2023-05-13T23:22:19.399Z,19.67
2023-05-13T23:25:21.542Z,15.93
2023-05-13T23:28:23.529Z,22.52
2023-05-13T23:31:25.665Z,22.20
2023-05-13T23:34:27.818Z,24.60
2023-05-13T23:37:29.829Z,31.00
2023-05-13T23:40:31.898Z,33.63
2023-05-13T23:43:33.972Z,31.67
2023-05-13T23:46:36.042Z,38.60
2023-05-13T23:49:38.310Z,37.40
2023-05-13T23:52:41.128Z,35.40
2023-05-13T23:55:43.262Z,39.20
2023-05-13T23:58:45.507Z,40.38
